sensor_id;sensor_type;location;lat;lon;timestamp;P1;durP1;ratioP1;P2;durP2;ratioP2
14994;SDS011;7593;49.006;8.372;2023-07-16T00:02:02;4.13;;;3.03;;
14994;SDS011;7593;49.006;8.372;2023-07-16T00:04:30;6.00;;;3.00;;
14994;SDS011;7593;49.006;8.372;2023-07-16T00:06:56;3.35;;;3.05;;
14994;SDS011;7593;49.006;8.372;2023-07-16T00:09:25;6.32;;;3.33;;
14994;SDS011;7593;49.006;8.372;2023-07-16T00:11:53;3.78;;;3.38;;
14994;SDS011;7593;49.006;8.372;2023-07-16T00:14:21;5.03;;;3.40;;
14994;SDS011;7593;49.006;8.372;2023-07-16T00:16:47;4.00;;;3.70;;
14994;SDS011;7593;49.006;8.372;2023-07-16T00:19:14;4.68;;;3.50;;
14994;SDS011;7593;49.006;8.372;2023-07-16T00:21:41;3.75;;;3.35;;
14994;SDS011;7593;49.006;8.372;2023-07-16T00:24:08;3.80;;;3.45;;
14994;SDS011;7593;49.006;8.372;2023-07-16T00:26:35;4.53;;;3.50;;
14994;SDS011;7593;49.006;8.372;2023-07-16T00:29:01;4.50;;;3.40;;
14994;SDS011;7593;49.006;8.372;2023-07-16T00:31:29;4.35;;;3.35;;
14994;SDS011;7593;49.006;8.372;2023-07-16T00:33:56;4.35;;;3.00;;
14994;SDS011;7593;49.006;8.372;2023-07-16T00:36:23;5.07;;;3.22;;
14994;SDS011;7593;49.006;8.372;2023-07-16T00:38:50;3.88;;;3.05;;
14994;SDS011;7593;49.006;8.372;2023-07-16T00:41:17;4.97;;;2.88;;
14994;SDS011;7593;49.006;8.372;2023-07-16T00:43:44;5.50;;;3.13;;
14994;SDS011;7593;49.006;8.372;2023-07-16T00:46:36;3.28;;;2.60;;
14994;SDS011;7593;49.006;8.372;2023-07-16T00:49:28;3.15;;;2.30;;
14994;SDS011;7593;49.006;8.372;2023-07-16T00:52:19;3.30;;;2.40;;
14994;SDS011;7593;49.006;8.372;2023-07-16T00:55:12;3.45;;;2.20;;
14994;SDS011;7593;49.006;8.372;2023-07-16T00:58:03;3.85;;;2.45;;
14994;SDS011;7593;49.006;8.372;2023-07-16T01:00:57;2.63;;;2.10;;
14994;SDS011;7593;49.006;8.372;2023-07-16T01:03:49;2.50;;;2.25;;
14994;SDS011;7593;49.006;8.372;2023-07-16T01:06:41;2.35;;;2.08;;
14994;SDS011;7593;49.006;8.372;2023-07-16T01:09:37;4.30;;;2.30;;
14994;SDS011;7593;49.006;8.372;2023-07-16T01:12:08;3.40;;;2.60;;
14994;SDS011;7593;49.006;8.372;2023-07-16T01:14:35;3.60;;;2.30;;
14994;SDS011;7593;49.006;8.372;2023-07-16T01:17:04;2.45;;;2.03;;
14994;SDS011;7593;49.006;8.372;2023-07-16T01:19:33;4.07;;;2.10;;
14994;SDS011;7593;49.006;8.372;2023-07-16T01:22:02;2.00;;;1.77;;
14994;SDS011;7593;49.006;8.372;2023-07-16T01:24:48;1.83;;;1.55;;
14994;SDS011;7593;49.006;8.372;2023-07-16T01:27:44;4.13;;;2.03;;
14994;SDS011;7593;49.006;8.372;2023-07-16T01:30:25;3.83;;;2.90;;
14994;SDS011;7593;49.006;8.372;2023-07-16T01:32:54;3.70;;;2.17;;
14994;SDS011;7593;49.006;8.372;2023-07-16T01:35:22;3.08;;;2.45;;
14994;SDS011;7593;49.006;8.372;2023-07-16T01:37:49;2.53;;;2.00;;
14994;SDS011;7593;49.006;8.372;2023-07-16T01:40:16;4.32;;;1.88;;
14994;SDS011;7593;49.006;8.372;2023-07-16T01:42:43;4.57;;;1.60;;
14994;SDS011;7593;49.006;8.372;2023-07-16T01:45:09;3.15;;;1.90;;
14994;SDS011;7593;49.006;8.372;2023-07-16T01:47:43;1.63;;;1.52;;
14994;SDS011;7593;49.006;8.372;2023-07-16T01:50:16;4.80;;;2.03;;
14994;SDS011;7593;49.006;8.372;2023-07-16T01:52:43;3.03;;;1.90;;
14994;SDS011;7593;49.006;8.372;2023-07-16T01:55:10;2.90;;;1.80;;
14994;SDS011;7593;49.006;8.372;2023-07-16T01:57:36;2.65;;;1.85;;
14994;SDS011;7593;49.006;8.372;2023-07-16T02:00:03;2.38;;;1.73;;
14994;SDS011;7593;49.006;8.372;2023-07-16T02:02:32;4.15;;;1.73;;
14994;SDS011;7593;49.006;8.372;2023-07-16T02:05:01;2.25;;;1.92;;
14994;SDS011;7593;49.006;8.372;2023-07-16T02:07:28;3.00;;;2.00;;
14994;SDS011;7593;49.006;8.372;2023-07-16T02:09:55;2.22;;;1.60;;
14994;SDS011;7593;49.006;8.372;2023-07-16T02:12:22;3.47;;;1.90;;
14994;SDS011;7593;49.006;8.372;2023-07-16T02:14:49;5.53;;;1.80;;
14994;SDS011;7593;49.006;8.372;2023-07-16T02:17:15;3.72;;;1.90;;
14994;SDS011;7593;49.006;8.372;2023-07-16T02:19:42;5.07;;;2.00;;
14994;SDS011;7593;49.006;8.372;2023-07-16T02:22:10;2.95;;;1.80;;
14994;SDS011;7593;49.006;8.372;2023-07-16T02:24:37;3.25;;;2.10;;
14994;SDS011;7593;49.006;8.372;2023-07-16T02:27:04;3.30;;;2.15;;
14994;SDS011;7593;49.006;8.372;2023-07-16T02:29:31;3.20;;;1.92;;
14994;SDS011;7593;49.006;8.372;2023-07-16T02:31:58;3.38;;;2.00;;
14994;SDS011;7593;49.006;8.372;2023-07-16T02:34:25;2.38;;;2.08;;
14994;SDS011;7593;49.006;8.372;2023-07-16T02:36:51;4.43;;;2.40;;
14994;SDS011;7593;49.006;8.372;2023-07-16T02:39:20;2.53;;;2.20;;
14994;SDS011;7593;49.006;8.372;2023-07-16T02:41:47;3.10;;;1.92;;
14994;SDS011;7593;49.006;8.372;2023-07-16T02:44:14;4.45;;;2.10;;
14994;SDS011;7593;49.006;8.372;2023-07-16T02:46:40;4.68;;;2.20;;
14994;SDS011;7593;49.006;8.372;2023-07-16T02:49:09;3.00;;;2.28;;
14994;SDS011;7593;49.006;8.372;2023-07-16T02:51:35;5.65;;;2.20;;
14994;SDS011;7593;49.006;8.372;2023-07-16T02:54:02;2.65;;;2.30;;
14994;SDS011;7593;49.006;8.372;2023-07-16T02:56:30;3.13;;;2.08;;
14994;SDS011;7593;49.006;8.372;2023-07-16T02:58:57;2.33;;;2.00;;
14994;SDS011;7593;49.006;8.372;2023-07-16T03:01:24;3.22;;;2.28;;
14994;SDS011;7593;49.006;8.372;2023-07-16T03:03:50;2.45;;;2.05;;
14994;SDS011;7593;49.006;8.372;2023-07-16T03:06:17;2.78;;;1.90;;
14994;SDS011;7593;49.006;8.372;2023-07-16T03:08:44;3.70;;;1.95;;
14994;SDS011;7593;49.006;8.372;2023-07-16T03:11:11;5.45;;;2.25;;
14994;SDS011;7593;49.006;8.372;2023-07-16T03:13:39;3.17;;;2.13;;
14994;SDS011;7593;49.006;8.372;2023-07-16T03:16:06;3.60;;;2.05;;
14994;SDS011;7593;49.006;8.372;2023-07-16T03:18:33;2.67;;;2.22;;
14994;SDS011;7593;49.006;8.372;2023-07-16T03:21:00;4.50;;;2.35;;
14994;SDS011;7593;49.006;8.372;2023-07-16T03:23:27;5.80;;;2.33;;
14994;SDS011;7593;49.006;8.372;2023-07-16T03:25:54;7.10;;;2.15;;
14994;SDS011;7593;49.006;8.372;2023-07-16T03:28:20;5.38;;;2.45;;
14994;SDS011;7593;49.006;8.372;2023-07-16T03:30:49;3.25;;;2.05;;
14994;SDS011;7593;49.006;8.372;2023-07-16T03:33:16;3.13;;;1.98;;
14994;SDS011;7593;49.006;8.372;2023-07-16T03:35:43;3.67;;;2.38;;
14994;SDS011;7593;49.006;8.372;2023-07-16T03:38:11;4.25;;;2.20;;
14994;SDS011;7593;49.006;8.372;2023-07-16T03:40:38;5.88;;;2.17;;
14994;SDS011;7593;49.006;8.372;2023-07-16T03:43:05;4.60;;;2.45;;
14994;SDS011;7593;49.006;8.372;2023-07-16T03:45:33;3.63;;;2.47;;
14994;SDS011;7593;49.006;8.372;2023-07-16T03:48:01;3.45;;;2.08;;
14994;SDS011;7593;49.006;8.372;2023-07-16T03:50:28;3.25;;;1.90;;
14994;SDS011;7593;49.006;8.372;2023-07-16T03:52:54;3.25;;;2.20;;
14994;SDS011;7593;49.006;8.372;2023-07-16T03:55:21;3.78;;;2.05;;
14994;SDS011;7593;49.006;8.372;2023-07-16T03:57:48;4.53;;;2.47;;
14994;SDS011;7593;49.006;8.372;2023-07-16T04:00:14;3.83;;;2.20;;
14994;SDS011;7593;49.006;8.372;2023-07-16T04:02:41;3.55;;;1.90;;
14994;SDS011;7593;49.006;8.372;2023-07-16T04:05:10;3.28;;;2.20;;
14994;SDS011;7593;49.006;8.372;2023-07-16T04:07:36;4.82;;;2.00;;
14994;SDS011;7593;49.006;8.372;2023-07-16T04:10:04;6.05;;;2.00;;
14994;SDS011;7593;49.006;8.372;2023-07-16T04:12:31;4.38;;;2.40;;
14994;SDS011;7593;49.006;8.372;2023-07-16T04:14:58;4.03;;;2.25;;
14994;SDS011;7593;49.006;8.372;2023-07-16T04:17:25;5.70;;;2.22;;
14994;SDS011;7593;49.006;8.372;2023-07-16T04:19:52;3.33;;;2.05;;
14994;SDS011;7593;49.006;8.372;2023-07-16T04:22:20;5.63;;;2.30;;
14994;SDS011;7593;49.006;8.372;2023-07-16T04:24:47;3.72;;;2.00;;
14994;SDS011;7593;49.006;8.372;2023-07-16T04:27:14;5.95;;;2.10;;
14994;SDS011;7593;49.006;8.372;2023-07-16T04:29:41;2.83;;;2.10;;
14994;SDS011;7593;49.006;8.372;2023-07-16T04:32:07;3.10;;;2.00;;
14994;SDS011;7593;49.006;8.372;2023-07-16T04:34:34;4.22;;;2.10;;
14994;SDS011;7593;49.006;8.372;2023-07-16T04:37:01;2.95;;;2.40;;
14994;SDS011;7593;49.006;8.372;2023-07-16T04:39:29;3.33;;;2.00;;
14994;SDS011;7593;49.006;8.372;2023-07-16T04:41:56;3.40;;;1.98;;
14994;SDS011;7593;49.006;8.372;2023-07-16T04:44:22;4.13;;;2.08;;
14994;SDS011;7593;49.006;8.372;2023-07-16T04:53:00;3.55;;;2.13;;
14994;SDS011;7593;49.006;8.372;2023-07-16T04:55:29;2.72;;;1.77;;
14994;SDS011;7593;49.006;8.372;2023-07-16T04:58:00;3.08;;;1.80;;
14994;SDS011;7593;49.006;8.372;2023-07-16T05:00:27;3.47;;;2.10;;
14994;SDS011;7593;49.006;8.372;2023-07-16T05:02:54;2.60;;;1.88;;
14994;SDS011;7593;49.006;8.372;2023-07-16T05:05:21;3.08;;;1.77;;
14994;SDS011;7593;49.006;8.372;2023-07-16T05:07:47;3.58;;;1.85;;
14994;SDS011;7593;49.006;8.372;2023-07-16T05:10:14;2.72;;;1.90;;
14994;SDS011;7593;49.006;8.372;2023-07-16T05:12:42;3.63;;;1.70;;
14994;SDS011;7593;49.006;8.372;2023-07-16T05:15:09;5.93;;;1.88;;
14994;SDS011;7593;49.006;8.372;2023-07-16T05:17:36;3.33;;;1.80;;
14994;SDS011;7593;49.006;8.372;2023-07-16T05:20:03;3.97;;;1.90;;
14994;SDS011;7593;49.006;8.372;2023-07-16T05:22:31;4.35;;;1.77;;
14994;SDS011;7593;49.006;8.372;2023-07-16T05:24:58;3.33;;;1.80;;
14994;SDS011;7593;49.006;8.372;2023-07-16T05:27:24;2.30;;;1.70;;
14994;SDS011;7593;49.006;8.372;2023-07-16T05:29:53;3.17;;;1.52;;
14994;SDS011;7593;49.006;8.372;2023-07-16T05:32:21;2.65;;;1.77;;
14994;SDS011;7593;49.006;8.372;2023-07-16T05:34:47;5.03;;;1.70;;
14994;SDS011;7593;49.006;8.372;2023-07-16T05:37:14;6.28;;;2.10;;
14994;SDS011;7593;49.006;8.372;2023-07-16T05:39:41;5.00;;;2.05;;
14994;SDS011;7593;49.006;8.372;2023-07-16T05:42:08;2.67;;;1.80;;
14994;SDS011;7593;49.006;8.372;2023-07-16T05:44:34;8.30;;;1.73;;
14994;SDS011;7593;49.006;8.372;2023-07-16T05:47:03;3.40;;;1.83;;
14994;SDS011;7593;49.006;8.372;2023-07-16T05:49:30;3.42;;;1.85;;
14994;SDS011;7593;49.006;8.372;2023-07-16T05:51:57;5.60;;;1.70;;
14994;SDS011;7593;49.006;8.372;2023-07-16T05:54:23;3.83;;;2.15;;
14994;SDS011;7593;49.006;8.372;2023-07-16T05:56:50;4.32;;;1.90;;
14994;SDS011;7593;49.006;8.372;2023-07-16T05:59:18;5.13;;;1.88;;
14994;SDS011;7593;49.006;8.372;2023-07-16T06:01:45;7.28;;;2.08;;
14994;SDS011;7593;49.006;8.372;2023-07-16T06:04:15;3.67;;;1.88;;
14994;SDS011;7593;49.006;8.372;2023-07-16T06:06:42;4.90;;;2.03;;
14994;SDS011;7593;49.006;8.372;2023-07-16T06:09:08;3.75;;;1.70;;
14994;SDS011;7593;49.006;8.372;2023-07-16T06:11:35;3.60;;;1.80;;
14994;SDS011;7593;49.006;8.372;2023-07-16T06:14:02;3.53;;;1.88;;
14994;SDS011;7593;49.006;8.372;2023-07-16T06:16:29;3.78;;;1.98;;
14994;SDS011;7593;49.006;8.372;2023-07-16T06:18:56;3.17;;;1.90;;
14994;SDS011;7593;49.006;8.372;2023-07-16T06:21:24;3.45;;;2.00;;
14994;SDS011;7593;49.006;8.372;2023-07-16T06:23:51;3.70;;;1.80;;
14994;SDS011;7593;49.006;8.372;2023-07-16T06:26:17;3.50;;;1.95;;
14994;SDS011;7593;49.006;8.372;2023-07-16T06:28:44;5.82;;;1.80;;
14994;SDS011;7593;49.006;8.372;2023-07-16T06:31:14;4.88;;;1.90;;
14994;SDS011;7593;49.006;8.372;2023-07-16T06:33:41;6.13;;;1.75;;
14994;SDS011;7593;49.006;8.372;2023-07-16T06:36:07;2.35;;;1.70;;
14994;SDS011;7593;49.006;8.372;2023-07-16T06:38:35;2.67;;;1.52;;
14994;SDS011;7593;49.006;8.372;2023-07-16T06:41:02;3.63;;;1.77;;
14994;SDS011;7593;49.006;8.372;2023-07-16T06:43:29;3.58;;;2.00;;
14994;SDS011;7593;49.006;8.372;2023-07-16T06:45:56;3.78;;;1.67;;
14994;SDS011;7593;49.006;8.372;2023-07-16T06:48:22;2.63;;;1.63;;
14994;SDS011;7593;49.006;8.372;2023-07-16T06:50:49;1.95;;;1.35;;
14994;SDS011;7593;49.006;8.372;2023-07-16T06:53:16;3.85;;;1.80;;
14994;SDS011;7593;49.006;8.372;2023-07-16T06:55:44;5.68;;;2.10;;
14994;SDS011;7593;49.006;8.372;2023-07-16T06:58:13;3.90;;;1.67;;
14994;SDS011;7593;49.006;8.372;2023-07-16T07:00:40;3.17;;;1.80;;
14994;SDS011;7593;49.006;8.372;2023-07-16T07:03:07;3.40;;;1.90;;
14994;SDS011;7593;49.006;8.372;2023-07-16T07:05:34;3.08;;;1.83;;
14994;SDS011;7593;49.006;8.372;2023-07-16T07:08:02;5.18;;;1.88;;
14994;SDS011;7593;49.006;8.372;2023-07-16T07:10:29;3.85;;;1.92;;
14994;SDS011;7593;49.006;8.372;2023-07-16T07:12:57;3.30;;;1.48;;
14994;SDS011;7593;49.006;8.372;2023-07-16T07:15:24;4.97;;;1.92;;
14994;SDS011;7593;49.006;8.372;2023-07-16T07:17:50;3.95;;;1.80;;
14994;SDS011;7593;49.006;8.372;2023-07-16T07:20:17;4.90;;;1.80;;
14994;SDS011;7593;49.006;8.372;2023-07-16T07:22:44;3.83;;;1.85;;
14994;SDS011;7593;49.006;8.372;2023-07-16T07:25:11;3.42;;;1.80;;
14994;SDS011;7593;49.006;8.372;2023-07-16T07:27:37;4.78;;;2.03;;
14994;SDS011;7593;49.006;8.372;2023-07-16T07:30:06;4.78;;;1.92;;
14994;SDS011;7593;49.006;8.372;2023-07-16T07:32:36;6.93;;;2.10;;
14994;SDS011;7593;49.006;8.372;2023-07-16T07:35:03;6.38;;;2.00;;
14994;SDS011;7593;49.006;8.372;2023-07-16T07:37:30;5.00;;;1.83;;
14994;SDS011;7593;49.006;8.372;2023-07-16T07:39:58;5.75;;;2.10;;
14994;SDS011;7593;49.006;8.372;2023-07-16T07:42:25;4.53;;;1.70;;
14994;SDS011;7593;49.006;8.372;2023-07-16T07:44:52;4.18;;;1.92;;
14994;SDS011;7593;49.006;8.372;2023-07-16T07:47:20;4.95;;;1.90;;
14994;SDS011;7593;49.006;8.372;2023-07-16T07:49:46;3.65;;;2.15;;
14994;SDS011;7593;49.006;8.372;2023-07-16T07:52:13;5.22;;;2.00;;
14994;SDS011;7593;49.006;8.372;2023-07-16T07:54:40;3.28;;;1.70;;
14994;SDS011;7593;49.006;8.372;2023-07-16T07:57:07;3.70;;;1.73;;
14994;SDS011;7593;49.006;8.372;2023-07-16T07:59:33;6.22;;;2.30;;
14994;SDS011;7593;49.006;8.372;2023-07-16T08:02:00;4.70;;;2.00;;
14994;SDS011;7593;49.006;8.372;2023-07-16T08:04:29;2.78;;;1.70;;
14994;SDS011;7593;49.006;8.372;2023-07-16T08:06:57;2.65;;;1.70;;
14994;SDS011;7593;49.006;8.372;2023-07-16T08:09:25;4.38;;;2.30;;
14994;SDS011;7593;49.006;8.372;2023-07-16T08:11:52;5.22;;;1.88;;
14994;SDS011;7593;49.006;8.372;2023-07-16T08:14:19;7.43;;;1.95;;
14994;SDS011;7593;49.006;8.372;2023-07-16T08:16:46;6.00;;;2.05;;
14994;SDS011;7593;49.006;8.372;2023-07-16T08:19:12;10.80;;;2.53;;
14994;SDS011;7593;49.006;8.372;2023-07-16T08:21:40;4.00;;;1.98;;
14994;SDS011;7593;49.006;8.372;2023-07-16T08:24:07;4.55;;;2.30;;
14994;SDS011;7593;49.006;8.372;2023-07-16T08:26:34;4.32;;;2.22;;
14994;SDS011;7593;49.006;8.372;2023-07-16T08:29:00;4.15;;;1.98;;
14994;SDS011;7593;49.006;8.372;2023-07-16T08:31:28;4.97;;;2.30;;
14994;SDS011;7593;49.006;8.372;2023-07-16T08:33:55;6.40;;;2.13;;
14994;SDS011;7593;49.006;8.372;2023-07-16T08:36:22;4.78;;;2.60;;
14994;SDS011;7593;49.006;8.372;2023-07-16T08:38:50;5.22;;;2.00;;
14994;SDS011;7593;49.006;8.372;2023-07-16T08:41:17;5.60;;;2.20;;
14994;SDS011;7593;49.006;8.372;2023-07-16T08:43:45;4.53;;;2.20;;
14994;SDS011;7593;49.006;8.372;2023-07-16T08:46:13;3.28;;;1.98;;
14994;SDS011;7593;49.006;8.372;2023-07-16T08:48:41;4.60;;;1.95;;
14994;SDS011;7593;49.006;8.372;2023-07-16T08:51:08;5.65;;;2.30;;
14994;SDS011;7593;49.006;8.372;2023-07-16T08:53:36;3.38;;;2.25;;
14994;SDS011;7593;49.006;8.372;2023-07-16T08:56:05;7.07;;;2.45;;
14994;SDS011;7593;49.006;8.372;2023-07-16T08:58:32;4.13;;;2.17;;
14994;SDS011;7593;49.006;8.372;2023-07-16T09:00:59;5.40;;;2.40;;
14994;SDS011;7593;49.006;8.372;2023-07-16T09:03:27;6.95;;;2.45;;
14994;SDS011;7593;49.006;8.372;2023-07-16T09:05:54;5.05;;;1.90;;
14994;SDS011;7593;49.006;8.372;2023-07-16T09:08:21;6.20;;;2.17;;
14994;SDS011;7593;49.006;8.372;2023-07-16T09:10:53;4.82;;;2.00;;
14994;SDS011;7593;49.006;8.372;2023-07-16T09:13:21;4.90;;;1.85;;
14994;SDS011;7593;49.006;8.372;2023-07-16T09:15:52;3.90;;;1.88;;
14994;SDS011;7593;49.006;8.372;2023-07-16T09:18:19;5.85;;;2.05;;
14994;SDS011;7593;49.006;8.372;2023-07-16T09:20:46;7.97;;;2.47;;
14994;SDS011;7593;49.006;8.372;2023-07-16T09:23:16;5.72;;;2.35;;
14994;SDS011;7593;49.006;8.372;2023-07-16T09:25:43;4.57;;;2.20;;
14994;SDS011;7593;49.006;8.372;2023-07-16T09:28:10;5.65;;;2.13;;
14994;SDS011;7593;49.006;8.372;2023-07-16T09:30:38;6.32;;;2.30;;
14994;SDS011;7593;49.006;8.372;2023-07-16T09:33:13;5.47;;;2.10;;
14994;SDS011;7593;49.006;8.372;2023-07-16T09:35:41;5.30;;;2.03;;
14994;SDS011;7593;49.006;8.372;2023-07-16T09:38:09;6.55;;;2.58;;
14994;SDS011;7593;49.006;8.372;2023-07-16T09:40:36;4.75;;;2.25;;
14994;SDS011;7593;49.006;8.372;2023-07-16T09:43:03;5.13;;;2.33;;
14994;SDS011;7593;49.006;8.372;2023-07-16T09:45:32;3.58;;;2.00;;
14994;SDS011;7593;49.006;8.372;2023-07-16T09:48:00;4.82;;;2.35;;
14994;SDS011;7593;49.006;8.372;2023-07-16T09:50:27;5.40;;;2.30;;
14994;SDS011;7593;49.006;8.372;2023-07-16T09:52:55;4.22;;;1.90;;
14994;SDS011;7593;49.006;8.372;2023-07-16T09:55:26;4.68;;;1.95;;
14994;SDS011;7593;49.006;8.372;2023-07-16T09:57:55;3.83;;;2.50;;
14994;SDS011;7593;49.006;8.372;2023-07-16T10:00:25;6.25;;;2.30;;
14994;SDS011;7593;49.006;8.372;2023-07-16T10:02:53;4.50;;;2.42;;
14994;SDS011;7593;49.006;8.372;2023-07-16T10:05:24;4.28;;;2.03;;
14994;SDS011;7593;49.006;8.372;2023-07-16T10:07:53;4.05;;;2.20;;
14994;SDS011;7593;49.006;8.372;2023-07-16T10:10:25;8.07;;;2.53;;
14994;SDS011;7593;49.006;8.372;2023-07-16T10:12:56;4.50;;;2.17;;
14994;SDS011;7593;49.006;8.372;2023-07-16T10:15:25;6.55;;;2.30;;
14994;SDS011;7593;49.006;8.372;2023-07-16T10:17:53;4.45;;;2.25;;
14994;SDS011;7593;49.006;8.372;2023-07-16T10:23:12;4.43;;;2.20;;
14994;SDS011;7593;49.006;8.372;2023-07-16T10:25:39;5.45;;;2.15;;
14994;SDS011;7593;49.006;8.372;2023-07-16T10:28:10;5.38;;;2.58;;
14994;SDS011;7593;49.006;8.372;2023-07-16T10:30:37;3.80;;;2.05;;
14994;SDS011;7593;49.006;8.372;2023-07-16T10:33:10;4.63;;;2.17;;
14994;SDS011;7593;49.006;8.372;2023-07-16T10:35:41;6.93;;;2.50;;
14994;SDS011;7593;49.006;8.372;2023-07-16T10:38:08;5.78;;;2.47;;
14994;SDS011;7593;49.006;8.372;2023-07-16T10:40:38;5.15;;;2.42;;
14994;SDS011;7593;49.006;8.372;2023-07-16T10:43:30;3.40;;;2.15;;
14994;SDS011;7593;49.006;8.372;2023-07-16T10:46:21;4.95;;;2.15;;
14994;SDS011;7593;49.006;8.372;2023-07-16T10:49:12;5.90;;;2.38;;
14994;SDS011;7593;49.006;8.372;2023-07-16T10:52:05;5.00;;;2.35;;
14994;SDS011;7593;49.006;8.372;2023-07-16T10:54:34;5.45;;;2.47;;
14994;SDS011;7593;49.006;8.372;2023-07-16T10:57:00;3.88;;;2.30;;
14994;SDS011;7593;49.006;8.372;2023-07-16T10:59:29;6.43;;;2.25;;
14994;SDS011;7593;49.006;8.372;2023-07-16T11:01:55;6.57;;;2.72;;
14994;SDS011;7593;49.006;8.372;2023-07-16T11:04:22;3.55;;;2.20;;
14994;SDS011;7593;49.006;8.372;2023-07-16T11:06:49;5.00;;;2.20;;
14994;SDS011;7593;49.006;8.372;2023-07-16T11:09:17;6.40;;;2.28;;
14994;SDS011;7593;49.006;8.372;2023-07-16T11:11:44;6.82;;;2.30;;
14994;SDS011;7593;49.006;8.372;2023-07-16T11:14:11;4.00;;;1.98;;
14994;SDS011;7593;49.006;8.372;2023-07-16T11:16:38;3.10;;;1.90;;
14994;SDS011;7593;49.006;8.372;2023-07-16T11:19:05;4.80;;;2.00;;
14994;SDS011;7593;49.006;8.372;2023-07-16T11:21:33;4.18;;;2.25;;
14994;SDS011;7593;49.006;8.372;2023-07-16T11:24:07;4.15;;;1.80;;
14994;SDS011;7593;49.006;8.372;2023-07-16T11:26:36;4.93;;;2.05;;
14994;SDS011;7593;49.006;8.372;2023-07-16T11:29:12;4.68;;;2.20;;
14994;SDS011;7593;49.006;8.372;2023-07-16T11:31:39;4.80;;;2.03;;
14994;SDS011;7593;49.006;8.372;2023-07-16T11:34:06;3.92;;;1.92;;
14994;SDS011;7593;49.006;8.372;2023-07-16T11:36:33;2.60;;;1.95;;
14994;SDS011;7593;49.006;8.372;2023-07-16T11:39:02;3.58;;;1.80;;
14994;SDS011;7593;49.006;8.372;2023-07-16T11:41:30;3.42;;;1.60;;
14994;SDS011;7593;49.006;8.372;2023-07-16T11:44:00;3.95;;;1.83;;
14994;SDS011;7593;49.006;8.372;2023-07-16T11:46:30;4.60;;;1.90;;
14994;SDS011;7593;49.006;8.372;2023-07-16T11:48:59;3.97;;;1.98;;
14994;SDS011;7593;49.006;8.372;2023-07-16T11:51:26;5.45;;;1.90;;
14994;SDS011;7593;49.006;8.372;2023-07-16T11:53:53;2.78;;;1.90;;
14994;SDS011;7593;49.006;8.372;2023-07-16T11:56:21;2.60;;;1.88;;
14994;SDS011;7593;49.006;8.372;2023-07-16T11:58:48;4.10;;;1.90;;
14994;SDS011;7593;49.006;8.372;2023-07-16T12:01:16;3.10;;;2.05;;
14994;SDS011;7593;49.006;8.372;2023-07-16T12:03:43;5.75;;;2.08;;
14994;SDS011;7593;49.006;8.372;2023-07-16T12:06:10;4.57;;;2.17;;
14994;SDS011;7593;49.006;8.372;2023-07-16T12:08:37;3.58;;;1.85;;
14994;SDS011;7593;49.006;8.372;2023-07-16T12:11:04;4.95;;;2.15;;
14994;SDS011;7593;49.006;8.372;2023-07-16T12:13:30;4.63;;;1.75;;
14994;SDS011;7593;49.006;8.372;2023-07-16T12:15:57;3.83;;;1.88;;
14994;SDS011;7593;49.006;8.372;2023-07-16T12:18:25;3.50;;;2.08;;
14994;SDS011;7593;49.006;8.372;2023-07-16T12:20:52;3.58;;;1.85;;
14994;SDS011;7593;49.006;8.372;2023-07-16T12:23:20;2.97;;;1.92;;
14994;SDS011;7593;49.006;8.372;2023-07-16T12:25:46;4.35;;;1.90;;
14994;SDS011;7593;49.006;8.372;2023-07-16T12:28:14;2.42;;;1.73;;
14994;SDS011;7593;49.006;8.372;2023-07-16T12:30:41;3.88;;;1.92;;
14994;SDS011;7593;49.006;8.372;2023-07-16T12:33:07;4.03;;;2.10;;
14994;SDS011;7593;49.006;8.372;2023-07-16T12:35:35;6.63;;;2.13;;
14994;SDS011;7593;49.006;8.372;2023-07-16T12:38:02;4.95;;;2.45;;
14994;SDS011;7593;49.006;8.372;2023-07-16T12:40:29;4.30;;;2.33;;
14994;SDS011;7593;49.006;8.372;2023-07-16T12:42:56;3.47;;;1.77;;
14994;SDS011;7593;49.006;8.372;2023-07-16T12:45:23;4.53;;;2.38;;
14994;SDS011;7593;49.006;8.372;2023-07-16T12:47:50;4.07;;;2.08;;
14994;SDS011;7593;49.006;8.372;2023-07-16T12:50:16;4.97;;;2.00;;
14994;SDS011;7593;49.006;8.372;2023-07-16T12:52:45;4.18;;;1.88;;
14994;SDS011;7593;49.006;8.372;2023-07-16T12:55:11;3.67;;;2.17;;
14994;SDS011;7593;49.006;8.372;2023-07-16T12:57:39;3.25;;;1.70;;
14994;SDS011;7593;49.006;8.372;2023-07-16T13:00:06;3.95;;;1.80;;
14994;SDS011;7593;49.006;8.372;2023-07-16T13:02:34;4.32;;;1.98;;
14994;SDS011;7593;49.006;8.372;2023-07-16T13:05:02;3.33;;;2.08;;
14994;SDS011;7593;49.006;8.372;2023-07-16T13:07:30;4.40;;;1.98;;
14994;SDS011;7593;49.006;8.372;2023-07-16T13:09:58;4.35;;;1.80;;
14994;SDS011;7593;49.006;8.372;2023-07-16T13:12:25;4.80;;;1.80;;
14994;SDS011;7593;49.006;8.372;2023-07-16T13:14:52;3.72;;;1.98;;
14994;SDS011;7593;49.006;8.372;2023-07-16T13:17:18;3.78;;;1.73;;
14994;SDS011;7593;49.006;8.372;2023-07-16T13:19:45;4.22;;;2.05;;
14994;SDS011;7593;49.006;8.372;2023-07-16T13:22:12;4.50;;;1.92;;
14994;SDS011;7593;49.006;8.372;2023-07-16T13:24:40;4.47;;;1.80;;
14994;SDS011;7593;49.006;8.372;2023-07-16T13:27:09;2.88;;;1.75;;
14994;SDS011;7593;49.006;8.372;2023-07-16T13:29:36;4.22;;;1.77;;
14994;SDS011;7593;49.006;8.372;2023-07-16T13:32:03;3.85;;;1.98;;
14994;SDS011;7593;49.006;8.372;2023-07-16T13:34:55;6.47;;;1.90;;
14994;SDS011;7593;49.006;8.372;2023-07-16T13:37:22;2.67;;;1.88;;
14994;SDS011;7593;49.006;8.372;2023-07-16T13:39:49;3.78;;;1.77;;
14994;SDS011;7593;49.006;8.372;2023-07-16T13:42:17;3.50;;;1.95;;
14994;SDS011;7593;49.006;8.372;2023-07-16T13:44:43;3.45;;;1.55;;
14994;SDS011;7593;49.006;8.372;2023-07-16T13:47:10;2.85;;;1.83;;
14994;SDS011;7593;49.006;8.372;2023-07-16T13:49:37;4.32;;;2.03;;
14994;SDS011;7593;49.006;8.372;2023-07-16T13:52:04;3.72;;;2.17;;
14994;SDS011;7593;49.006;8.372;2023-07-16T13:54:31;2.70;;;1.70;;
14994;SDS011;7593;49.006;8.372;2023-07-16T13:56:58;2.88;;;1.58;;
14994;SDS011;7593;49.006;8.372;2023-07-16T13:59:26;4.88;;;2.13;;
14994;SDS011;7593;49.006;8.372;2023-07-16T14:01:58;2.85;;;1.75;;
14994;SDS011;7593;49.006;8.372;2023-07-16T14:04:26;4.63;;;1.98;;
14994;SDS011;7593;49.006;8.372;2023-07-16T14:06:53;3.67;;;2.08;;
14994;SDS011;7593;49.006;8.372;2023-07-16T14:09:20;2.63;;;1.80;;
14994;SDS011;7593;49.006;8.372;2023-07-16T14:11:47;2.65;;;1.77;;
14994;SDS011;7593;49.006;8.372;2023-07-16T14:14:14;3.10;;;1.90;;
14994;SDS011;7593;49.006;8.372;2023-07-16T14:16:43;2.83;;;1.70;;
14994;SDS011;7593;49.006;8.372;2023-07-16T14:19:10;3.53;;;1.98;;
14994;SDS011;7593;49.006;8.372;2023-07-16T14:21:37;3.72;;;1.95;;
14994;SDS011;7593;49.006;8.372;2023-07-16T14:24:04;3.88;;;1.75;;
14994;SDS011;7593;49.006;8.372;2023-07-16T14:26:31;2.80;;;1.75;;
14994;SDS011;7593;49.006;8.372;2023-07-16T14:28:59;3.10;;;1.58;;
14994;SDS011;7593;49.006;8.372;2023-07-16T14:31:25;3.28;;;2.00;;
14994;SDS011;7593;49.006;8.372;2023-07-16T14:33:53;3.30;;;1.88;;
14994;SDS011;7593;49.006;8.372;2023-07-16T14:36:20;4.38;;;2.03;;
14994;SDS011;7593;49.006;8.372;2023-07-16T14:38:47;4.00;;;1.80;;
14994;SDS011;7593;49.006;8.372;2023-07-16T14:41:14;4.57;;;1.98;;
14994;SDS011;7593;49.006;8.372;2023-07-16T14:43:41;3.78;;;2.00;;
14994;SDS011;7593;49.006;8.372;2023-07-16T14:46:10;2.97;;;1.90;;
14994;SDS011;7593;49.006;8.372;2023-07-16T14:48:40;2.85;;;1.70;;
14994;SDS011;7593;49.006;8.372;2023-07-16T14:51:08;3.75;;;2.00;;
14994;SDS011;7593;49.006;8.372;2023-07-16T14:53:35;3.25;;;1.77;;
14994;SDS011;7593;49.006;8.372;2023-07-16T14:56:02;4.07;;;2.20;;
14994;SDS011;7593;49.006;8.372;2023-07-16T14:58:30;3.33;;;1.90;;
14994;SDS011;7593;49.006;8.372;2023-07-16T15:00:58;3.13;;;1.88;;
14994;SDS011;7593;49.006;8.372;2023-07-16T15:03:26;5.07;;;2.20;;
14994;SDS011;7593;49.006;8.372;2023-07-16T15:05:55;3.80;;;2.17;;
14994;SDS011;7593;49.006;8.372;2023-07-16T15:08:24;3.85;;;2.08;;
14994;SDS011;7593;49.006;8.372;2023-07-16T15:10:52;3.53;;;1.88;;
14994;SDS011;7593;49.006;8.372;2023-07-16T15:13:21;4.07;;;1.92;;
14994;SDS011;7593;49.006;8.372;2023-07-16T15:15:50;5.07;;;4.03;;
14994;SDS011;7593;49.006;8.372;2023-07-16T15:18:17;2.47;;;1.80;;